aviador You're here:

KRKR Decoded Metar

POTEAU (R KERR) in OK, USA
Report Time2017-08-19 10:55:00
UTC Time2017-08-19 11:08:20
Flight Rules vfr VFR
WindCalm
Visibility9999 m
Phenomena:N/A
Clouds:N/A
Expected CloudBase > 400 ft AGL from Temp-Dew spread
CeilingNone
Temp22°C (ISA +8)
Dew Point21°C (94% RH)
QNH1016 hPa
Density Alt1,601 ft
Elevation453 ft
Report Wrong Elevation
Raw Report
KRKR 191055Z AUTO 00000KT 10SM CLR 22/21 A2999 RMK AO2=

Extra information for KRKR:More info

Metar Taf Metar & Taf Last 4 Metars F.Rules Stats Wind Profile Meteogram Temp Stats Airport Information Weather charts Add Link Nearby VenuesMetar ALERT Operation Metar Decoded Social comments

AIRNAV info for KRKR